Terminal Aerodrome Forecast
Issued by NWS Burlington, VT

Home | Current Version | Previous Version | Text Only | Print | Product List | Glossary On
Versions: 1 2 3 4 5 6 7 8 9 10 11 12 13 14
686
FTUS41 KBTV 210740 AAA
TAFBTV
TAF AMD
KBTV 210740Z 2108/2206 VRB03KT P6SM BKN070
     FM211200 17005KT P6SM FEW250=

USA.gov is the U.S. government's official web portal to all federal, state and local government web resources and services.